Elberta, Michigan
Current Conditions -  °F | °C
As of 9:36 AM on Friday 28 Nov 2014 (Local Time) from KFKS Reporting Station
Overcast Overcast  
Wind Chill: 20°   Ceiling: 3100
Heat Index: 20°   Visibility: 10mi
Dew Point: 17°   Wind: 3mph
Humidity: 87%   Direction: 130°SE
Pressure: 30.22"   Gusts: NA
Location:  44.62°N, 86.23°W
Report Text: KFKS 281436Z AUTO 13003KT 10SM SCT025 OVC031 M07/M09 A3022 RMK AO2 T10671086
Loading
Personal Weather Stations






























Interactive Weather Map New forecast layout! Learn more

10-Day Weather Forecast

Advertisements
Track Severe Weather on mobile